KSNC

Chester Airport

Chester, Connecticut, USA
METAR KSNC 220755Z AUTO 26005KT 10SM CLR 00/M04 A3015 RMK AO2
Observed Flight Rules
Oct-22 @ 07:55 UTC (23 minutes ago) Visual Flight Rules
Wind Visibility Clouds
260° at 5 knots 10 miles
  • Clear skies
Temperatures Readings
Current 0°C / 32°F
Dewpoint -4°C / 25°F
Humidity 75%
Altimeter 30.15" Hg
Pressure 1021 hPa
Elevation 127
METAR KSNC 220755Z AUTO 26005KT 10SM CLR 00/M04 A3015 RMK AO2
Observed Flight Rules
Oct-22 @ 07:55 UTC
(23 minutes ago)
VFR
Wind Visibility
260° at 5 knots 10 miles
Clouds
  • Clear skies
Temperature Dewpoint
0°C / 32°F -4°C / 25°F
Humidity Altimeter Pressure
75% 30.15" Hg 1021 hPa